sensor_id;sensor_type;location;lat;lon;timestamp;pressure;altitude;pressure_sealevel;temperature;humidity
15932;BME280;8065;49.520;11.284;2022-12-08T00:01:13;97008.09;;;7.63;81.24
15932;BME280;8065;49.520;11.284;2022-12-08T00:03:40;97003.25;;;7.56;80.71
15932;BME280;8065;49.520;11.284;2022-12-08T00:06:18;97005.75;;;7.62;80.63
15932;BME280;8065;49.520;11.284;2022-12-08T00:09:11;97002.31;;;7.87;79.59
15932;BME280;8065;49.520;11.284;2022-12-08T00:11:47;97001.53;;;7.86;79.54
15932;BME280;8065;49.520;11.284;2022-12-08T00:14:14;97002.94;;;7.84;79.60
15932;BME280;8065;49.520;11.284;2022-12-08T00:16:41;97003.09;;;7.96;79.42
15932;BME280;8065;49.520;11.284;2022-12-08T00:19:07;96997.97;;;7.91;79.36
15932;BME280;8065;49.520;11.284;2022-12-08T00:21:34;96997.19;;;7.90;79.68
15932;BME280;8065;49.520;11.284;2022-12-08T00:24:00;96999.53;;;7.92;79.47
15932;BME280;8065;49.520;11.284;2022-12-08T00:26:28;96985.81;;;7.90;79.31
15932;BME280;8065;49.520;11.284;2022-12-08T00:28:54;96998.59;;;7.88;79.57
15932;BME280;8065;49.520;11.284;2022-12-08T00:31:21;96996.56;;;7.94;79.68
15932;BME280;8065;49.520;11.284;2022-12-08T00:33:47;96987.38;;;7.82;79.08
15932;BME280;8065;49.520;11.284;2022-12-08T00:36:14;96987.84;;;7.84;79.72
15932;BME280;8065;49.520;11.284;2022-12-08T00:38:40;96986.00;;;7.76;79.16
15932;BME280;8065;49.520;11.284;2022-12-08T00:41:12;96992.03;;;7.42;81.18
15932;BME280;8065;49.520;11.284;2022-12-08T00:43:41;96992.19;;;7.37;82.05
15932;BME280;8065;49.520;11.284;2022-12-08T00:46:07;96990.47;;;7.33;81.40
15932;BME280;8065;49.520;11.284;2022-12-08T00:48:34;96990.16;;;7.34;82.14
15932;BME280;8065;49.520;11.284;2022-12-08T00:51:00;96987.84;;;7.41;82.25
15932;BME280;8065;49.520;11.284;2022-12-08T00:53:27;96991.09;;;7.38;81.97
15932;BME280;8065;49.520;11.284;2022-12-08T00:55:55;96983.69;;;7.75;80.44
15932;BME280;8065;49.520;11.284;2022-12-08T00:58:21;96986.94;;;7.54;81.33
15932;BME280;8065;49.520;11.284;2022-12-08T01:00:49;96987.84;;;7.50;81.10
15932;BME280;8065;49.520;11.284;2022-12-08T01:03:16;96983.66;;;7.49;80.91
15932;BME280;8065;49.520;11.284;2022-12-08T01:05:42;96989.09;;;7.52;81.42
15932;BME280;8065;49.520;11.284;2022-12-08T01:08:08;96989.56;;;7.46;81.82
15932;BME280;8065;49.520;11.284;2022-12-08T01:10:35;96989.88;;;7.44;81.56
15932;BME280;8065;49.520;11.284;2022-12-08T01:13:02;96987.69;;;7.38;81.75
15932;BME280;8065;49.520;11.284;2022-12-08T01:15:29;96992.50;;;7.36;82.47
15932;BME280;8065;49.520;11.284;2022-12-08T01:17:57;96997.00;;;7.35;81.37
15932;BME280;8065;49.520;11.284;2022-12-08T01:20:23;96998.56;;;7.36;81.68
15932;BME280;8065;49.520;11.284;2022-12-08T01:22:50;96997.00;;;7.27;81.06
15932;BME280;8065;49.520;11.284;2022-12-08T01:25:16;96998.72;;;7.40;81.22
15932;BME280;8065;49.520;11.284;2022-12-08T01:27:43;96995.75;;;7.33;81.03
15932;BME280;8065;49.520;11.284;2022-12-08T01:30:10;96998.41;;;7.33;81.96
15932;BME280;8065;49.520;11.284;2022-12-08T01:32:37;96995.59;;;7.29;81.06
15932;BME280;8065;49.520;11.284;2022-12-08T01:35:05;96996.22;;;7.26;81.17
15932;BME280;8065;49.520;11.284;2022-12-08T01:37:32;96993.84;;;7.16;81.98
15932;BME280;8065;49.520;11.284;2022-12-08T01:39:58;96998.69;;;7.22;81.97
15932;BME280;8065;49.520;11.284;2022-12-08T01:42:25;96992.00;;;7.25;81.52
15932;BME280;8065;49.520;11.284;2022-12-08T01:44:55;96991.41;;;7.28;81.06
15932;BME280;8065;49.520;11.284;2022-12-08T01:47:24;96993.25;;;7.19;81.57
15932;BME280;8065;49.520;11.284;2022-12-08T01:49:52;96991.69;;;7.18;81.35
15932;BME280;8065;49.520;11.284;2022-12-08T01:52:23;96981.97;;;7.70;79.27
15932;BME280;8065;49.520;11.284;2022-12-08T01:54:54;96979.28;;;7.27;80.55
15932;BME280;8065;49.520;11.284;2022-12-08T01:57:23;96971.31;;;7.18;81.09
15932;BME280;8065;49.520;11.284;2022-12-08T01:59:56;96972.41;;;7.17;81.08
15932;BME280;8065;49.520;11.284;2022-12-08T02:02:28;96976.00;;;7.21;80.38
15932;BME280;8065;49.520;11.284;2022-12-08T02:04:57;96962.47;;;7.23;80.81
15932;BME280;8065;49.520;11.284;2022-12-08T02:07:25;96970.72;;;7.21;80.30
15932;BME280;8065;49.520;11.284;2022-12-08T02:09:52;96961.22;;;7.12;80.68
15932;BME280;8065;49.520;11.284;2022-12-08T02:12:19;96964.59;;;7.04;80.12
15932;BME280;8065;49.520;11.284;2022-12-08T02:14:45;96963.38;;;7.10;80.15
15932;BME280;8065;49.520;11.284;2022-12-08T02:17:25;96964.59;;;7.04;80.69
15932;BME280;8065;49.520;11.284;2022-12-08T02:20:14;96960.88;;;7.05;80.30
15932;BME280;8065;49.520;11.284;2022-12-08T02:22:52;96957.16;;;7.06;80.13
15932;BME280;8065;49.520;11.284;2022-12-08T02:25:24;96952.88;;;7.62;78.54
15932;BME280;8065;49.520;11.284;2022-12-08T02:28:00;96950.41;;;7.74;77.61
15932;BME280;8065;49.520;11.284;2022-12-08T02:30:37;96943.56;;;7.55;78.19
15932;BME280;8065;49.520;11.284;2022-12-08T02:33:26;96947.84;;;7.17;79.25
15932;BME280;8065;49.520;11.284;2022-12-08T02:36:04;96937.22;;;6.82;80.87
15932;BME280;8065;49.520;11.284;2022-12-08T02:38:43;96934.41;;;6.70;81.19
15932;BME280;8065;49.520;11.284;2022-12-08T02:41:24;96933.31;;;6.71;81.27
15932;BME280;8065;49.520;11.284;2022-12-08T02:43:59;96935.47;;;6.69;80.76
15932;BME280;8065;49.520;11.284;2022-12-08T02:46:30;96933.72;;;6.56;80.47
15932;BME280;8065;49.520;11.284;2022-12-08T02:48:58;96936.66;;;6.54;80.78
15932;BME280;8065;49.520;11.284;2022-12-08T02:51:26;96933.25;;;6.54;81.58
15932;BME280;8065;49.520;11.284;2022-12-08T02:53:53;96938.19;;;6.47;80.83
15932;BME280;8065;49.520;11.284;2022-12-08T02:56:34;96925.59;;;6.44;80.67
15932;BME280;8065;49.520;11.284;2022-12-08T02:59:13;96931.03;;;6.47;80.76
15932;BME280;8065;49.520;11.284;2022-12-08T03:01:51;96920.31;;;6.44;80.80
15932;BME280;8065;49.520;11.284;2022-12-08T03:04:32;96920.19;;;6.49;80.22
15932;BME280;8065;49.520;11.284;2022-12-08T03:07:06;96915.81;;;6.44;80.34
15932;BME280;8065;49.520;11.284;2022-12-08T03:09:38;96914.19;;;6.26;81.04
15932;BME280;8065;49.520;11.284;2022-12-08T03:12:13;96904.75;;;6.34;81.12
15932;BME280;8065;49.520;11.284;2022-12-08T03:14:44;96907.19;;;6.21;80.80
15932;BME280;8065;49.520;11.284;2022-12-08T03:17:13;96908.13;;;6.25;80.83
15932;BME280;8065;49.520;11.284;2022-12-08T03:19:42;96912.16;;;6.23;80.90
15932;BME280;8065;49.520;11.284;2022-12-08T03:22:14;96910.63;;;6.31;80.90
15932;BME280;8065;49.520;11.284;2022-12-08T03:24:43;96912.38;;;6.04;81.03
15932;BME280;8065;49.520;11.284;2022-12-08T03:27:13;96904.66;;;6.16;80.82
15932;BME280;8065;49.520;11.284;2022-12-08T03:29:41;96907.78;;;6.18;81.01
15932;BME280;8065;49.520;11.284;2022-12-08T03:32:12;96893.69;;;6.23;80.91
15932;BME280;8065;49.520;11.284;2022-12-08T03:34:42;96897.44;;;6.31;80.65
15932;BME280;8065;49.520;11.284;2022-12-08T03:37:09;96894.63;;;6.27;80.44
15932;BME280;8065;49.520;11.284;2022-12-08T03:39:37;96891.19;;;6.18;80.80
15932;BME280;8065;49.520;11.284;2022-12-08T03:42:04;96890.75;;;6.24;80.54
15932;BME280;8065;49.520;11.284;2022-12-08T03:44:30;96890.13;;;6.28;79.91
15932;BME280;8065;49.520;11.284;2022-12-08T03:46:57;96894.63;;;6.27;80.03
15932;BME280;8065;49.520;11.284;2022-12-08T03:49:23;96889.88;;;6.38;79.71
15932;BME280;8065;49.520;11.284;2022-12-08T03:51:50;96881.91;;;6.29;80.15
15932;BME280;8065;49.520;11.284;2022-12-08T03:54:16;96883.31;;;6.27;79.33
15932;BME280;8065;49.520;11.284;2022-12-08T03:56:44;96880.69;;;6.35;79.13
15932;BME280;8065;49.520;11.284;2022-12-08T03:59:10;96884.75;;;6.02;80.19
15932;BME280;8065;49.520;11.284;2022-12-08T04:01:37;96880.47;;;6.14;80.20
15932;BME280;8065;49.520;11.284;2022-12-08T04:04:04;96875.06;;;6.19;80.15
15932;BME280;8065;49.520;11.284;2022-12-08T04:06:30;96868.34;;;6.13;80.33
15932;BME280;8065;49.520;11.284;2022-12-08T04:08:57;96862.16;;;6.18;79.85
15932;BME280;8065;49.520;11.284;2022-12-08T04:11:23;96875.06;;;6.19;79.80
15932;BME280;8065;49.520;11.284;2022-12-08T04:13:51;96876.47;;;6.25;80.09
15932;BME280;8065;49.520;11.284;2022-12-08T04:16:20;96869.19;;;6.31;79.50
15932;BME280;8065;49.520;11.284;2022-12-08T04:18:46;96864.72;;;6.32;79.62
15932;BME280;8065;49.520;11.284;2022-12-08T04:21:13;96873.41;;;6.32;79.66
15932;BME280;8065;49.520;11.284;2022-12-08T04:23:40;96863.50;;;6.38;79.27
15932;BME280;8065;49.520;11.284;2022-12-08T04:26:07;96866.47;;;6.45;79.16
15932;BME280;8065;49.520;11.284;2022-12-08T04:28:34;96864.44;;;6.42;79.13
15932;BME280;8065;49.520;11.284;2022-12-08T04:31:02;96863.78;;;6.36;79.32
15932;BME280;8065;49.520;11.284;2022-12-08T04:33:29;96859.75;;;6.39;79.11
15932;BME280;8065;49.520;11.284;2022-12-08T04:35:55;96863.56;;;6.15;79.14
15932;BME280;8065;49.520;11.284;2022-12-08T04:38:22;96859.56;;;6.27;78.92
15932;BME280;8065;49.520;11.284;2022-12-08T04:40:48;96863.75;;;6.28;79.01
15932;BME280;8065;49.520;11.284;2022-12-08T04:43:15;96859.44;;;6.32;78.77
15932;BME280;8065;49.520;11.284;2022-12-08T04:45:42;96855.88;;;6.36;78.46
15932;BME280;8065;49.520;11.284;2022-12-08T04:48:10;96863.16;;;6.31;79.17
15932;BME280;8065;49.520;11.284;2022-12-08T04:50:39;96847.78;;;6.33;78.46
15932;BME280;8065;49.520;11.284;2022-12-08T04:53:06;96853.97;;;6.28;79.35
15932;BME280;8065;49.520;11.284;2022-12-08T04:55:33;96847.31;;;6.31;79.41
15932;BME280;8065;49.520;11.284;2022-12-08T04:57:59;96847.78;;;6.33;78.70
15932;BME280;8065;49.520;11.284;2022-12-08T05:00:26;96843.00;;;6.35;78.69
15932;BME280;8065;49.520;11.284;2022-12-08T05:02:52;96855.09;;;6.36;78.98
15932;BME280;8065;49.520;11.284;2022-12-08T05:05:20;96848.78;;;6.45;78.57
15932;BME280;8065;49.520;11.284;2022-12-08T05:07:46;96854.03;;;6.45;78.56
15932;BME280;8065;49.520;11.284;2022-12-08T05:10:13;96851.06;;;6.38;78.99
15932;BME280;8065;49.520;11.284;2022-12-08T05:12:39;96833.38;;;6.39;78.48
15932;BME280;8065;49.520;11.284;2022-12-08T05:15:06;96846.59;;;6.47;78.59
15932;BME280;8065;49.520;11.284;2022-12-08T05:17:33;96847.03;;;6.41;79.16
15932;BME280;8065;49.520;11.284;2022-12-08T05:19:59;96847.31;;;6.31;79.18
15932;BME280;8065;49.520;11.284;2022-12-08T05:22:27;96850.25;;;6.29;78.46
15932;BME280;8065;49.520;11.284;2022-12-08T05:24:54;96854.59;;;6.25;78.82
15932;BME280;8065;49.520;11.284;2022-12-08T05:27:20;96841.88;;;6.27;79.37
15932;BME280;8065;49.520;11.284;2022-12-08T05:29:47;96846.84;;;6.29;79.37
15932;BME280;8065;49.520;11.284;2022-12-08T05:32:14;96840.97;;;6.32;78.95
15932;BME280;8065;49.520;11.284;2022-12-08T05:34:41;96851.91;;;6.16;79.53
15932;BME280;8065;49.520;11.284;2022-12-08T05:37:07;96848.94;;;6.09;79.29
15932;BME280;8065;49.520;11.284;2022-12-08T05:39:35;96842.91;;;6.17;79.50
15932;BME280;8065;49.520;11.284;2022-12-08T05:42:02;96848.50;;;6.16;79.65
15932;BME280;8065;49.520;11.284;2022-12-08T05:44:29;96838.25;;;6.14;79.57
15932;BME280;8065;49.520;11.284;2022-12-08T05:46:55;96846.47;;;6.04;79.89
15932;BME280;8065;49.520;11.284;2022-12-08T05:49:22;96841.50;;;6.11;79.47
15932;BME280;8065;49.520;11.284;2022-12-08T05:51:48;96840.72;;;6.02;79.61
15932;BME280;8065;49.520;11.284;2022-12-08T05:54:14;96839.00;;;5.98;80.17
15932;BME280;8065;49.520;11.284;2022-12-08T05:56:42;96846.00;;;6.02;79.93
15932;BME280;8065;49.520;11.284;2022-12-08T05:59:09;96845.03;;;5.98;79.96
15932;BME280;8065;49.520;11.284;2022-12-08T06:01:35;96838.06;;;6.02;80.30
15932;BME280;8065;49.520;11.284;2022-12-08T06:04:03;96834.66;;;6.02;79.92
15932;BME280;8065;49.520;11.284;2022-12-08T06:06:30;96839.16;;;6.01;79.76
15932;BME280;8065;49.520;11.284;2022-12-08T06:08:57;96833.91;;;6.10;80.06
15932;BME280;8065;49.520;11.284;2022-12-08T06:11:26;96847.19;;;5.96;80.31
15932;BME280;8065;49.520;11.284;2022-12-08T06:13:55;96844.91;;;6.03;79.46
15932;BME280;8065;49.520;11.284;2022-12-08T06:16:22;96842.88;;;6.00;79.95
15932;BME280;8065;49.520;11.284;2022-12-08T06:18:48;96836.84;;;6.08;79.75
15932;BME280;8065;49.520;11.284;2022-12-08T06:21:16;96842.41;;;6.07;79.81
15932;BME280;8065;49.520;11.284;2022-12-08T06:23:42;96830.59;;;5.96;79.51
15932;BME280;8065;49.520;11.284;2022-12-08T06:26:11;96837.00;;;6.03;80.11
15932;BME280;8065;49.520;11.284;2022-12-08T06:28:38;96828.59;;;6.01;80.49
15932;BME280;8065;49.520;11.284;2022-12-08T06:31:09;96836.66;;;5.96;80.23
15932;BME280;8065;49.520;11.284;2022-12-08T06:33:36;96841.94;;;5.96;80.17
15932;BME280;8065;49.520;11.284;2022-12-08T06:36:03;96835.09;;;5.95;80.27
15932;BME280;8065;49.520;11.284;2022-12-08T06:38:29;96838.22;;;5.97;79.45
15932;BME280;8065;49.520;11.284;2022-12-08T06:40:57;96840.25;;;6.00;79.85
15932;BME280;8065;49.520;11.284;2022-12-08T06:43:24;96847.69;;;6.07;79.64
15932;BME280;8065;49.520;11.284;2022-12-08T06:45:51;96840.88;;;6.06;79.47
15932;BME280;8065;49.520;11.284;2022-12-08T06:48:19;96841.94;;;5.96;79.53
15932;BME280;8065;49.520;11.284;2022-12-08T06:50:45;96846.00;;;6.02;79.67
15932;BME280;8065;49.520;11.284;2022-12-08T06:53:12;96849.41;;;6.11;79.71
15932;BME280;8065;49.520;11.284;2022-12-08T06:55:42;96845.69;;;6.04;80.09
15932;BME280;8065;49.520;11.284;2022-12-08T06:58:09;96854.84;;;6.06;79.75
15932;BME280;8065;49.520;11.284;2022-12-08T07:00:36;96853.44;;;6.00;79.58
15932;BME280;8065;49.520;11.284;2022-12-08T07:03:02;96851.25;;;6.02;79.64
15932;BME280;8065;49.520;11.284;2022-12-08T07:05:30;96857.41;;;5.89;80.25
15932;BME280;8065;49.520;11.284;2022-12-08T07:07:57;96854.38;;;6.04;80.08
15932;BME280;8065;49.520;11.284;2022-12-08T07:10:23;96851.25;;;6.02;79.65
15932;BME280;8065;49.520;11.284;2022-12-08T07:12:49;96853.28;;;6.05;79.75
15932;BME280;8065;49.520;11.284;2022-12-08T07:15:16;96856.66;;;5.97;79.97
15932;BME280;8065;49.520;11.284;2022-12-08T07:17:43;96859.91;;;5.94;79.99
15932;BME280;8065;49.520;11.284;2022-12-08T07:20:09;96859.31;;;5.97;79.85
15932;BME280;8065;49.520;11.284;2022-12-08T07:22:37;96863.16;;;5.91;80.00
15932;BME280;8065;49.520;11.284;2022-12-08T07:25:05;96860.50;;;5.91;80.10
15932;BME280;8065;49.520;11.284;2022-12-08T07:27:31;96861.47;;;5.95;79.85
15932;BME280;8065;49.520;11.284;2022-12-08T07:29:58;96861.47;;;5.95;79.83
15932;BME280;8065;49.520;11.284;2022-12-08T07:32:24;96861.94;;;5.97;79.65
15932;BME280;8065;49.520;11.284;2022-12-08T07:34:51;96854.81;;;5.98;79.95
15932;BME280;8065;49.520;11.284;2022-12-08T07:37:18;96857.63;;;5.79;80.40
15932;BME280;8065;49.520;11.284;2022-12-08T07:39:45;96858.41;;;5.79;80.63
15932;BME280;8065;49.520;11.284;2022-12-08T07:42:12;96857.41;;;5.67;80.21
15932;BME280;8065;49.520;11.284;2022-12-08T07:44:38;96858.41;;;5.79;80.34
15932;BME280;8065;49.520;11.284;2022-12-08T07:47:05;96859.00;;;5.76;80.47
15932;BME280;8065;49.520;11.284;2022-12-08T07:49:31;96857.94;;;5.77;80.65
15932;BME280;8065;49.520;11.284;2022-12-08T07:51:58;96853.44;;;5.78;80.69
15932;BME280;8065;49.520;11.284;2022-12-08T07:54:24;96857.28;;;5.72;80.98
15932;BME280;8065;49.520;11.284;2022-12-08T07:56:55;96854.81;;;5.75;80.60
15932;BME280;8065;49.520;11.284;2022-12-08T07:59:22;96853.84;;;5.71;80.76
15932;BME280;8065;49.520;11.284;2022-12-08T08:01:48;96851.28;;;5.80;80.24
15932;BME280;8065;49.520;11.284;2022-12-08T08:04:16;96853.91;;;5.80;80.65
15932;BME280;8065;49.520;11.284;2022-12-08T08:06:42;96846.00;;;5.80;80.88
15932;BME280;8065;49.520;11.284;2022-12-08T08:09:09;96862.13;;;5.78;80.70
15932;BME280;8065;49.520;11.284;2022-12-08T08:11:36;96854.69;;;5.80;80.49
15932;BME280;8065;49.520;11.284;2022-12-08T08:14:03;96853.59;;;5.81;80.55
15932;BME280;8065;49.520;11.284;2022-12-08T08:16:30;96859.13;;;5.94;80.44
15932;BME280;8065;49.520;11.284;2022-12-08T08:18:56;96858.34;;;5.93;80.05
15932;BME280;8065;49.520;11.284;2022-12-08T08:21:23;96863.19;;;6.00;79.99
15932;BME280;8065;49.520;11.284;2022-12-08T08:23:49;96856.53;;;6.02;80.10
15932;BME280;8065;49.520;11.284;2022-12-08T08:26:16;96861.22;;;6.05;79.79
15932;BME280;8065;49.520;11.284;2022-12-08T08:28:42;96851.69;;;5.96;79.79
15932;BME280;8065;49.520;11.284;2022-12-08T08:31:11;96852.03;;;6.03;79.71
15932;BME280;8065;49.520;11.284;2022-12-08T08:33:38;96854.50;;;5.99;80.21
15932;BME280;8065;49.520;11.284;2022-12-08T08:36:06;96864.94;;;6.04;79.95
15932;BME280;8065;49.520;11.284;2022-12-08T08:38:32;96863.19;;;6.00;79.85
15932;BME280;8065;49.520;11.284;2022-12-08T08:40:59;96857.19;;;5.85;79.90
15932;BME280;8065;49.520;11.284;2022-12-08T08:43:27;96862.84;;;5.93;79.56
15932;BME280;8065;49.520;11.284;2022-12-08T08:45:58;96861.63;;;5.99;79.64
15932;BME280;8065;49.520;11.284;2022-12-08T08:48:28;96862.41;;;5.99;79.53
15932;BME280;8065;49.520;11.284;2022-12-08T08:50:56;96860.50;;;5.91;79.69
15932;BME280;8065;49.520;11.284;2022-12-08T08:53:23;96859.72;;;5.90;79.44
15932;BME280;8065;49.520;11.284;2022-12-08T08:55:50;96860.25;;;6.01;79.44
15932;BME280;8065;49.520;11.284;2022-12-08T08:58:16;96861.22;;;6.05;79.27
15932;BME280;8065;49.520;11.284;2022-12-08T09:00:43;96860.38;;;5.96;79.75
15932;BME280;8065;49.520;11.284;2022-12-08T09:03:10;96858.09;;;6.03;79.04
15932;BME280;8065;49.520;11.284;2022-12-08T09:05:38;96869.25;;;6.00;79.18
15932;BME280;8065;49.520;11.284;2022-12-08T09:08:05;96858.34;;;5.93;80.18
15932;BME280;8065;49.520;11.284;2022-12-08T09:10:31;96864.16;;;6.04;79.76
15932;BME280;8065;49.520;11.284;2022-12-08T09:12:58;96859.94;;;6.03;79.63
15932;BME280;8065;49.520;11.284;2022-12-08T09:15:24;96857.50;;;6.06;79.60
15932;BME280;8065;49.520;11.284;2022-12-08T09:17:51;96861.50;;;6.04;79.99
15932;BME280;8065;49.520;11.284;2022-12-08T09:20:17;96859.31;;;5.97;79.87
15932;BME280;8065;49.520;11.284;2022-12-08T09:22:45;96856.06;;;6.00;79.93
15932;BME280;8065;49.520;11.284;2022-12-08T09:25:12;96852.91;;;5.89;80.58
15932;BME280;8065;49.520;11.284;2022-12-08T09:27:39;96856.84;;;6.09;79.71
15932;BME280;8065;49.520;11.284;2022-12-08T09:30:06;96851.25;;;6.02;79.91
15932;BME280;8065;49.520;11.284;2022-12-08T09:32:33;96850.66;;;6.14;79.80
15932;BME280;8065;49.520;11.284;2022-12-08T09:34:59;96847.59;;;6.20;79.52
15932;BME280;8065;49.520;11.284;2022-12-08T09:37:26;96840.50;;;6.30;79.49
15932;BME280;8065;49.520;11.284;2022-12-08T09:39:54;96848.53;;;6.24;79.69
15932;BME280;8065;49.520;11.284;2022-12-08T09:42:31;96841.59;;;6.37;79.43
15932;BME280;8065;49.520;11.284;2022-12-08T09:45:04;96846.28;;;6.40;79.02
15932;BME280;8065;49.520;11.284;2022-12-08T09:47:36;96836.81;;;6.48;78.97
15932;BME280;8065;49.520;11.284;2022-12-08T09:50:11;96840.88;;;6.54;78.47
15932;BME280;8065;49.520;11.284;2022-12-08T09:52:40;96832.97;;;6.54;78.47
15932;BME280;8065;49.520;11.284;2022-12-08T09:55:18;96832.34;;;6.57;78.25
15932;BME280;8065;49.520;11.284;2022-12-08T09:57:51;96827.50;;;6.50;78.09
15932;BME280;8065;49.520;11.284;2022-12-08T10:00:20;96818.53;;;6.60;78.22
15932;BME280;8065;49.520;11.284;2022-12-08T10:02:47;96822.03;;;6.38;78.76
15932;BME280;8065;49.520;11.284;2022-12-08T10:05:13;96820.19;;;6.39;78.17
15932;BME280;8065;49.520;11.284;2022-12-08T10:07:44;96816.75;;;6.30;78.96
15932;BME280;8065;49.520;11.284;2022-12-08T10:10:23;96820.47;;;6.29;79.46
15932;BME280;8065;49.520;11.284;2022-12-08T10:12:54;96813.19;;;6.34;78.93
15932;BME280;8065;49.520;11.284;2022-12-08T10:15:32;96810.72;;;6.38;79.43
15932;BME280;8065;49.520;11.284;2022-12-08T10:18:10;96801.59;;;6.52;78.25
15932;BME280;8065;49.520;11.284;2022-12-08T10:20:41;96809.81;;;6.42;78.90
15932;BME280;8065;49.520;11.284;2022-12-08T10:23:15;96806.22;;;6.38;78.37
15932;BME280;8065;49.520;11.284;2022-12-08T10:25:47;96801.75;;;6.56;78.37
15932;BME280;8065;49.520;11.284;2022-12-08T10:28:14;96805.94;;;6.48;77.71
15932;BME280;8065;49.520;11.284;2022-12-08T10:30:41;96800.03;;;6.51;77.99
15932;BME280;8065;49.520;11.284;2022-12-08T10:33:13;96790.88;;;6.49;78.12
15932;BME280;8065;49.520;11.284;2022-12-08T10:35:45;96795.81;;;6.42;78.34
15932;BME280;8065;49.520;11.284;2022-12-08T10:38:18;96784.84;;;6.66;78.10
15932;BME280;8065;49.520;11.284;2022-12-08T10:40:47;96780.59;;;6.39;77.79
15932;BME280;8065;49.520;11.284;2022-12-08T10:43:17;96776.63;;;6.84;76.33
15932;BME280;8065;49.520;11.284;2022-12-08T10:45:45;96768.09;;;6.79;77.12
15932;BME280;8065;49.520;11.284;2022-12-08T10:48:15;96766.06;;;6.84;77.26
15932;BME280;8065;49.520;11.284;2022-12-08T10:50:44;96771.47;;;6.97;76.75
15932;BME280;8065;49.520;11.284;2022-12-08T10:53:13;96760.63;;;6.89;76.37
15932;BME280;8065;49.520;11.284;2022-12-08T10:55:42;96753.94;;;7.01;76.04
15932;BME280;8065;49.520;11.284;2022-12-08T10:58:30;96763.88;;;7.04;75.60
15932;BME280;8065;49.520;11.284;2022-12-08T11:01:03;96756.88;;;7.08;75.38
15932;BME280;8065;49.520;11.284;2022-12-08T11:03:33;96746.59;;;7.15;75.47
15932;BME280;8065;49.520;11.284;2022-12-08T11:06:08;96746.16;;;7.13;74.61
15932;BME280;8065;49.520;11.284;2022-12-08T11:08:44;96747.69;;;7.22;74.66
15932;BME280;8065;49.520;11.284;2022-12-08T11:11:12;96751.56;;;7.25;74.48
15932;BME280;8065;49.520;11.284;2022-12-08T11:13:40;96741.63;;;7.31;74.56
15932;BME280;8065;49.520;11.284;2022-12-08T11:16:09;96739.41;;;7.41;74.45
15932;BME280;8065;49.520;11.284;2022-12-08T11:18:39;96733.97;;;7.46;74.47
15932;BME280;8065;49.520;11.284;2022-12-08T11:21:09;96732.75;;;7.35;74.88
15932;BME280;8065;49.520;11.284;2022-12-08T11:23:36;96737.69;;;7.45;74.39
15932;BME280;8065;49.520;11.284;2022-12-08T11:26:12;96723.56;;;7.33;74.29
15932;BME280;8065;49.520;11.284;2022-12-08T11:28:44;96727.56;;;7.56;73.29
15932;BME280;8065;49.520;11.284;2022-12-08T11:31:19;96715.50;;;7.29;73.61
15932;BME280;8065;49.520;11.284;2022-12-08T11:33:47;96720.63;;;7.34;74.27
15932;BME280;8065;49.520;11.284;2022-12-08T11:36:16;96719.22;;;7.37;74.17
15932;BME280;8065;49.520;11.284;2022-12-08T11:38:48;96715.81;;;7.28;74.09
15932;BME280;8065;49.520;11.284;2022-12-08T11:41:18;96717.19;;;7.42;73.71
15932;BME280;8065;49.520;11.284;2022-12-08T11:43:52;96710.34;;;7.41;74.31
15932;BME280;8065;49.520;11.284;2022-12-08T11:46:23;96713.94;;;7.37;73.74
15932;BME280;8065;49.520;11.284;2022-12-08T11:48:52;96708.94;;;7.44;74.89
15932;BME280;8065;49.520;11.284;2022-12-08T11:51:28;96712.03;;;7.46;74.04
15932;BME280;8065;49.520;11.284;2022-12-08T11:54:07;96714.03;;;7.57;73.77
15932;BME280;8065;49.520;11.284;2022-12-08T11:56:38;96708.38;;;7.68;73.78
15932;BME280;8065;49.520;11.284;2022-12-08T11:59:15;96708.53;;;7.71;73.24
15932;BME280;8065;49.520;11.284;2022-12-08T12:01:43;96708.03;;;7.78;73.80
15932;BME280;8065;49.520;11.284;2022-12-08T12:04:16;96700.56;;;7.80;73.76
15932;BME280;8065;49.520;11.284;2022-12-08T12:09:58;96700.59;;;8.01;72.90
15932;BME280;8065;49.520;11.284;2022-12-08T12:12:39;96701.81;;;8.03;72.46
15932;BME280;8065;49.520;11.284;2022-12-08T12:15:43;96691.69;;;8.05;73.13
15932;BME280;8065;49.520;11.284;2022-12-08T12:18:22;96699.03;;;8.00;73.31
15932;BME280;8065;49.520;11.284;2022-12-08T12:20:53;96688.31;;;7.96;73.21
15932;BME280;8065;49.520;11.284;2022-12-08T12:23:23;96698.88;;;7.96;72.59
15932;BME280;8065;49.520;11.284;2022-12-08T12:25:54;96690.50;;;7.94;72.34
15932;BME280;8065;49.520;11.284;2022-12-08T12:28:23;96683.78;;;7.97;72.18
15932;BME280;8065;49.520;11.284;2022-12-08T12:30:57;96689.59;;;7.90;72.70
15932;BME280;8065;49.520;11.284;2022-12-08T12:33:26;96684.38;;;8.02;71.91
15932;BME280;8065;49.520;11.284;2022-12-08T12:35:55;96680.19;;;8.01;72.47
15932;BME280;8065;49.520;11.284;2022-12-08T12:38:25;96686.13;;;7.98;72.31
15932;BME280;8065;49.520;11.284;2022-12-08T12:41:09;96684.47;;;7.85;72.21
15932;BME280;8065;49.520;11.284;2022-12-08T12:43:38;96683.38;;;7.86;72.53
15932;BME280;8065;49.520;11.284;2022-12-08T12:46:41;96684.78;;;7.83;71.86
15932;BME280;8065;49.520;11.284;2022-12-08T12:49:50;96675.84;;;7.76;71.87
15932;BME280;8065;49.520;11.284;2022-12-08T12:52:39;96671.66;;;7.75;72.12
15932;BME280;8065;49.520;11.284;2022-12-08T12:55:26;96683.13;;;7.41;72.80
15932;BME280;8065;49.520;11.284;2022-12-08T12:57:55;96678.66;;;7.71;72.09
15932;BME280;8065;49.520;11.284;2022-12-08T13:00:23;96678.22;;;7.69;72.78
15932;BME280;8065;49.520;11.284;2022-12-08T13:02:52;96666.34;;;7.75;72.82
15932;BME280;8065;49.520;11.284;2022-12-08T13:05:21;96669.19;;;7.70;71.16
15932;BME280;8065;49.520;11.284;2022-12-08T13:07:52;96673.19;;;7.76;72.13
15932;BME280;8065;49.520;11.284;2022-12-08T13:10:22;96665.50;;;7.83;71.59
15932;BME280;8065;49.520;11.284;2022-12-08T13:13:06;96660.03;;;7.88;70.82
15932;BME280;8065;49.520;11.284;2022-12-08T13:15:48;96655.47;;;7.97;71.63
15932;BME280;8065;49.520;11.284;2022-12-08T13:18:19;96651.28;;;7.96;71.26
15932;BME280;8065;49.520;11.284;2022-12-08T13:20:49;96648.50;;;7.93;71.48
15932;BME280;8065;49.520;11.284;2022-12-08T13:23:42;96648.78;;;8.00;71.55
15932;BME280;8065;49.520;11.284;2022-12-08T13:26:15;96648.69;;;7.87;70.67